sensor_id;sensor_type;location;lat;lon;timestamp;pressure;altitude;pressure_sealevel;temperature;humidity
18858;BME280;9558;50.178;8.370;2024-02-26T00:00:27;96425.63;;;7.08;81.11
18858;BME280;9558;50.178;8.370;2024-02-26T00:03:14;96419.50;;;7.09;82.11
18858;BME280;9558;50.178;8.370;2024-02-26T00:06:01;96409.00;;;7.04;82.36
18858;BME280;9558;50.178;8.370;2024-02-26T00:08:49;96410.59;;;7.05;81.88
18858;BME280;9558;50.178;8.370;2024-02-26T00:11:37;96409.78;;;6.98;83.95
18858;BME280;9558;50.178;8.370;2024-02-26T00:14:23;96412.97;;;7.00;84.11
18858;BME280;9558;50.178;8.370;2024-02-26T00:17:10;96416.94;;;6.96;83.66
18858;BME280;9558;50.178;8.370;2024-02-26T00:19:57;96395.97;;;6.99;83.13
18858;BME280;9558;50.178;8.370;2024-02-26T00:22:43;96409.78;;;6.98;84.29
18858;BME280;9558;50.178;8.370;2024-02-26T00:25:32;96395.16;;;6.99;84.70
18858;BME280;9558;50.178;8.370;2024-02-26T00:28:18;96379.72;;;6.99;83.61
18858;BME280;9558;50.178;8.370;2024-02-26T00:31:06;96371.03;;;7.00;83.77
18858;BME280;9558;50.178;8.370;2024-02-26T00:33:53;96365.50;;;6.96;85.06
18858;BME280;9558;50.178;8.370;2024-02-26T00:36:39;96358.38;;;6.98;84.40
18858;BME280;9558;50.178;8.370;2024-02-26T00:39:26;96349.28;;;7.02;84.37
18858;BME280;9558;50.178;8.370;2024-02-26T00:42:14;96349.28;;;7.02;85.06
18858;BME280;9558;50.178;8.370;2024-02-26T00:45:01;96347.28;;;7.04;84.87
18858;BME280;9558;50.178;8.370;2024-02-26T00:47:48;96344.91;;;7.03;84.80
18858;BME280;9558;50.178;8.370;2024-02-26T00:50:35;96341.34;;;7.04;84.66
18858;BME280;9558;50.178;8.370;2024-02-26T00:53:22;96327.72;;;7.03;84.94
18858;BME280;9558;50.178;8.370;2024-02-26T00:56:10;96323.16;;;7.05;85.99
18858;BME280;9558;50.178;8.370;2024-02-26T00:58:58;96342.34;;;7.03;86.05
18858;BME280;9558;50.178;8.370;2024-02-26T01:01:45;96356.00;;;7.03;86.66
18858;BME280;9558;50.178;8.370;2024-02-26T01:04:32;96333.03;;;7.08;83.15
18858;BME280;9558;50.178;8.370;2024-02-26T01:07:19;96342.97;;;7.12;82.57
18858;BME280;9558;50.178;8.370;2024-02-26T01:10:07;96356.00;;;7.17;84.08
18858;BME280;9558;50.178;8.370;2024-02-26T01:12:53;96352.44;;;7.18;83.92
18858;BME280;9558;50.178;8.370;2024-02-26T01:15:41;96347.47;;;7.30;81.46
18858;BME280;9558;50.178;8.370;2024-02-26T01:18:29;96341.72;;;7.34;80.91
18858;BME280;9558;50.178;8.370;2024-02-26T01:21:16;96323.94;;;7.39;80.44
18858;BME280;9558;50.178;8.370;2024-02-26T01:24:03;96324.72;;;7.47;79.65
18858;BME280;9558;50.178;8.370;2024-02-26T01:26:50;96309.25;;;7.47;79.71
18858;BME280;9558;50.178;8.370;2024-02-26T01:29:36;96300.00;;;7.39;80.96
18858;BME280;9558;50.178;8.370;2024-02-26T01:32:24;96331.44;;;7.48;79.30
18858;BME280;9558;50.178;8.370;2024-02-26T01:35:11;96337.00;;;7.44;80.42
18858;BME280;9558;50.178;8.370;2024-02-26T01:37:58;96363.50;;;7.45;80.78
18858;BME280;9558;50.178;8.370;2024-02-26T01:40:45;96354.81;;;7.46;81.11
18858;BME280;9558;50.178;8.370;2024-02-26T01:43:32;96348.44;;;7.49;78.61
18858;BME280;9558;50.178;8.370;2024-02-26T01:46:18;96343.31;;;7.49;79.45
18858;BME280;9558;50.178;8.370;2024-02-26T01:49:08;96347.66;;;7.41;80.91
18858;BME280;9558;50.178;8.370;2024-02-26T01:51:58;96360.75;;;7.47;79.04
18858;BME280;9558;50.178;8.370;2024-02-26T01:54:45;96366.28;;;7.50;80.38
18858;BME280;9558;50.178;8.370;2024-02-26T01:57:32;96347.25;;;7.51;80.40
18858;BME280;9558;50.178;8.370;2024-02-26T02:00:20;96343.31;;;7.49;79.00
18858;BME280;9558;50.178;8.370;2024-02-26T02:03:07;96341.13;;;7.46;80.63
18858;BME280;9558;50.178;8.370;2024-02-26T02:05:55;96338.38;;;7.40;80.74
18858;BME280;9558;50.178;8.370;2024-02-26T02:08:42;96327.88;;;7.42;79.30
18858;BME280;9558;50.178;8.370;2024-02-26T02:11:30;96339.97;;;7.35;80.83
18858;BME280;9558;50.178;8.370;2024-02-26T02:14:17;96339.38;;;7.39;79.86
18858;BME280;9558;50.178;8.370;2024-02-26T02:17:04;96322.34;;;7.38;80.20
18858;BME280;9558;50.178;8.370;2024-02-26T02:19:50;96351.03;;;7.35;80.53
18858;BME280;9558;50.178;8.370;2024-02-26T02:22:38;96349.84;;;7.31;81.03
18858;BME280;9558;50.178;8.370;2024-02-26T02:25:25;96332.03;;;7.30;81.48
18858;BME280;9558;50.178;8.370;2024-02-26T02:28:12;96353.63;;;7.29;81.45
18858;BME280;9558;50.178;8.370;2024-02-26T02:30:59;96366.09;;;7.25;82.10
18858;BME280;9558;50.178;8.370;2024-02-26T02:33:46;96355.41;;;7.21;81.67
18858;BME280;9558;50.178;8.370;2024-02-26T02:36:33;96369.47;;;7.12;82.29
18858;BME280;9558;50.178;8.370;2024-02-26T02:39:21;96373.81;;;7.12;83.53
18858;BME280;9558;50.178;8.370;2024-02-26T02:42:08;96381.53;;;7.12;83.45
18858;BME280;9558;50.178;8.370;2024-02-26T02:44:55;96385.28;;;7.02;84.06
18858;BME280;9558;50.178;8.370;2024-02-26T02:47:42;96387.84;;;7.02;83.40
18858;BME280;9558;50.178;8.370;2024-02-26T02:50:28;96389.22;;;6.98;83.99
18858;BME280;9558;50.178;8.370;2024-02-26T02:53:15;96389.44;;;7.03;83.13
18858;BME280;9558;50.178;8.370;2024-02-26T02:56:06;96374.00;;;7.03;83.22
18858;BME280;9558;50.178;8.370;2024-02-26T02:58:52;96390.41;;;6.96;83.58
18858;BME280;9558;50.178;8.370;2024-02-26T03:01:39;96383.28;;;6.91;84.08
18858;BME280;9558;50.178;8.370;2024-02-26T03:04:26;96399.09;;;6.88;84.66
18858;BME280;9558;50.178;8.370;2024-02-26T03:07:12;96392.97;;;6.89;84.63
18858;BME280;9558;50.178;8.370;2024-02-26T03:09:59;96382.09;;;6.87;85.70
18858;BME280;9558;50.178;8.370;2024-02-26T03:12:47;96389.41;;;6.90;85.47
18858;BME280;9558;50.178;8.370;2024-02-26T03:15:34;96392.75;;;6.84;86.88
18858;BME280;9558;50.178;8.370;2024-02-26T03:18:21;96372.78;;;6.79;86.88
18858;BME280;9558;50.178;8.370;2024-02-26T03:21:08;96386.66;;;6.85;85.58
18858;BME280;9558;50.178;8.370;2024-02-26T03:23:54;96380.31;;;6.81;85.58
18858;BME280;9558;50.178;8.370;2024-02-26T03:26:41;96390.97;;;6.84;86.15
18858;BME280;9558;50.178;8.370;2024-02-26T03:29:30;96395.13;;;6.79;87.61
18858;BME280;9558;50.178;8.370;2024-02-26T03:32:16;96389.19;;;6.78;87.54
18858;BME280;9558;50.178;8.370;2024-02-26T03:35:04;96391.16;;;6.83;86.70
18858;BME280;9558;50.178;8.370;2024-02-26T03:37:50;96396.72;;;6.80;87.15
18858;BME280;9558;50.178;8.370;2024-02-26T03:40:37;96391.97;;;6.77;87.83
18858;BME280;9558;50.178;8.370;2024-02-26T03:43:24;96397.69;;;6.79;87.49
18858;BME280;9558;50.178;8.370;2024-02-26T03:46:12;96397.50;;;6.73;88.65
18858;BME280;9558;50.178;8.370;2024-02-26T03:48:59;96410.53;;;6.79;87.60
18858;BME280;9558;50.178;8.370;2024-02-26T03:51:45;96400.25;;;6.79;87.89
18858;BME280;9558;50.178;8.370;2024-02-26T03:54:32;96405.41;;;6.72;88.36
18858;BME280;9558;50.178;8.370;2024-02-26T03:57:19;96407.78;;;6.73;88.79
18858;BME280;9558;50.178;8.370;2024-02-26T04:00:06;96399.25;;;6.66;89.39
18858;BME280;9558;50.178;8.370;2024-02-26T04:02:55;96412.50;;;6.63;91.48
18858;BME280;9558;50.178;8.370;2024-02-26T04:05:42;96411.31;;;6.59;92.78
18858;BME280;9558;50.178;8.370;2024-02-26T04:08:29;96405.53;;;6.57;92.56
18858;BME280;9558;50.178;8.370;2024-02-26T04:11:16;96416.81;;;6.56;92.88
18858;BME280;9558;50.178;8.370;2024-02-26T04:14:04;96402.16;;;6.50;95.81
18858;BME280;9558;50.178;8.370;2024-02-26T04:16:53;96403.72;;;6.44;100.00
18858;BME280;9558;50.178;8.370;2024-02-26T04:19:41;96404.16;;;6.48;95.91
18858;BME280;9558;50.178;8.370;2024-02-26T04:22:28;96409.06;;;6.43;97.61
18858;BME280;9558;50.178;8.370;2024-02-26T04:25:15;96406.09;;;6.39;100.00
18858;BME280;9558;50.178;8.370;2024-02-26T04:28:02;96407.66;;;6.33;100.00
18858;BME280;9558;50.178;8.370;2024-02-26T04:30:49;96411.78;;;6.28;100.00
18858;BME280;9558;50.178;8.370;2024-02-26T04:33:36;96401.69;;;6.26;100.00
18858;BME280;9558;50.178;8.370;2024-02-26T04:36:24;96402.44;;;6.20;100.00
18858;BME280;9558;50.178;8.370;2024-02-26T04:39:11;96404.41;;;6.18;100.00
18858;BME280;9558;50.178;8.370;2024-02-26T04:41:58;96405.78;;;6.14;100.00
18858;BME280;9558;50.178;8.370;2024-02-26T04:44:45;96397.28;;;6.13;100.00
18858;BME280;9558;50.178;8.370;2024-02-26T04:47:31;96402.38;;;6.07;100.00
18858;BME280;9558;50.178;8.370;2024-02-26T04:50:18;96400.41;;;6.02;100.00
18858;BME280;9558;50.178;8.370;2024-02-26T04:53:06;96417.31;;;5.96;100.00
18858;BME280;9558;50.178;8.370;2024-02-26T04:55:53;96408.59;;;5.91;100.00
18858;BME280;9558;50.178;8.370;2024-02-26T04:58:40;96417.47;;;5.88;100.00
18858;BME280;9558;50.178;8.370;2024-02-26T05:01:27;96414.31;;;5.86;100.00
18858;BME280;9558;50.178;8.370;2024-02-26T05:04:14;96418.81;;;5.84;100.00
18858;BME280;9558;50.178;8.370;2024-02-26T05:07:00;96431.25;;;5.80;100.00
18858;BME280;9558;50.178;8.370;2024-02-26T05:09:49;96417.59;;;5.80;100.00
18858;BME280;9558;50.178;8.370;2024-02-26T05:12:36;96415.41;;;5.77;100.00
18858;BME280;9558;50.178;8.370;2024-02-26T05:15:22;96414.00;;;5.74;100.00
18858;BME280;9558;50.178;8.370;2024-02-26T05:18:09;96420.16;;;5.73;100.00
18858;BME280;9558;50.178;8.370;2024-02-26T05:20:56;96419.34;;;5.72;100.00
18858;BME280;9558;50.178;8.370;2024-02-26T05:23:43;96413.22;;;5.74;100.00
18858;BME280;9558;50.178;8.370;2024-02-26T05:26:32;96417.16;;;5.69;100.00
18858;BME280;9558;50.178;8.370;2024-02-26T05:29:18;96419.13;;;5.67;100.00
18858;BME280;9558;50.178;8.370;2024-02-26T05:32:06;96420.69;;;5.68;100.00
18858;BME280;9558;50.178;8.370;2024-02-26T05:34:53;96418.28;;;5.60;100.00
18858;BME280;9558;50.178;8.370;2024-02-26T05:37:39;96417.47;;;5.60;100.00
18858;BME280;9558;50.178;8.370;2024-02-26T05:40:26;96418.63;;;5.57;100.00
18858;BME280;9558;50.178;8.370;2024-02-26T05:43:14;96421.81;;;5.59;100.00
18858;BME280;9558;50.178;8.370;2024-02-26T05:46:02;96415.88;;;5.59;100.00
18858;BME280;9558;50.178;8.370;2024-02-26T05:48:50;96421.63;;;5.61;100.00
18858;BME280;9558;50.178;8.370;2024-02-26T05:51:37;96420.66;;;5.62;100.00
18858;BME280;9558;50.178;8.370;2024-02-26T05:54:24;96424.56;;;5.58;100.00
18858;BME280;9558;50.178;8.370;2024-02-26T05:57:11;96432.28;;;5.58;100.00
18858;BME280;9558;50.178;8.370;2024-02-26T05:59:59;96437.59;;;5.56;100.00
18858;BME280;9558;50.178;8.370;2024-02-26T06:02:30;96429.88;;;5.56;100.00
18858;BME280;9558;50.178;8.370;2024-02-26T06:05:17;96432.47;;;5.56;100.00
18858;BME280;9558;50.178;8.370;2024-02-26T06:08:04;96428.53;;;5.60;100.00
18858;BME280;9558;50.178;8.370;2024-02-26T06:10:52;96435.56;;;5.51;100.00
18858;BME280;9558;50.178;8.370;2024-02-26T06:13:39;96439.91;;;5.51;100.00
18858;BME280;9558;50.178;8.370;2024-02-26T06:16:27;96441.88;;;5.49;100.00
18858;BME280;9558;50.178;8.370;2024-02-26T06:19:14;96441.88;;;5.49;100.00
18858;BME280;9558;50.178;8.370;2024-02-26T06:22:01;96441.63;;;5.44;100.00
18858;BME280;9558;50.178;8.370;2024-02-26T06:24:47;96442.59;;;5.43;100.00
18858;BME280;9558;50.178;8.370;2024-02-26T06:27:34;96443.16;;;5.38;100.00
18858;BME280;9558;50.178;8.370;2024-02-26T06:30:21;96447.25;;;5.32;100.00
18858;BME280;9558;50.178;8.370;2024-02-26T06:33:09;96462.28;;;5.35;100.00
18858;BME280;9558;50.178;8.370;2024-02-26T06:35:56;96460.69;;;5.34;100.00
18858;BME280;9558;50.178;8.370;2024-02-26T06:38:43;96457.88;;;5.29;100.00
18858;BME280;9558;50.178;8.370;2024-02-26T06:41:30;96467.19;;;5.30;100.00
18858;BME280;9558;50.178;8.370;2024-02-26T06:44:16;96470.88;;;5.28;100.00
18858;BME280;9558;50.178;8.370;2024-02-26T06:47:03;96475.25;;;5.27;100.00
18858;BME280;9558;50.178;8.370;2024-02-26T06:49:52;96481.94;;;5.28;100.00
18858;BME280;9558;50.178;8.370;2024-02-26T06:52:39;96474.00;;;5.23;100.00
18858;BME280;9558;50.178;8.370;2024-02-26T06:55:26;96475.16;;;5.21;100.00
18858;BME280;9558;50.178;8.370;2024-02-26T06:58:12;96481.00;;;5.14;100.00
18858;BME280;9558;50.178;8.370;2024-02-26T07:00:59;96488.69;;;5.14;100.00
18858;BME280;9558;50.178;8.370;2024-02-26T07:03:46;96489.63;;;5.07;100.00
18858;BME280;9558;50.178;8.370;2024-02-26T07:06:35;96499.28;;;5.05;100.00
18858;BME280;9558;50.178;8.370;2024-02-26T07:09:21;96500.25;;;5.04;100.00
18858;BME280;9558;50.178;8.370;2024-02-26T07:12:08;96501.56;;;4.99;100.00
18858;BME280;9558;50.178;8.370;2024-02-26T07:14:55;96501.56;;;4.99;100.00
18858;BME280;9558;50.178;8.370;2024-02-26T07:17:42;96514.38;;;4.99;100.00
18858;BME280;9558;50.178;8.370;2024-02-26T07:20:32;96510.00;;;4.93;100.00
18858;BME280;9558;50.178;8.370;2024-02-26T07:23:20;96519.00;;;4.89;100.00
18858;BME280;9558;50.178;8.370;2024-02-26T07:26:07;96517.06;;;4.91;100.00
18858;BME280;9558;50.178;8.370;2024-02-26T07:28:54;96524.88;;;4.83;100.00
18858;BME280;9558;50.178;8.370;2024-02-26T07:31:41;96530.94;;;4.82;100.00
18858;BME280;9558;50.178;8.370;2024-02-26T07:34:27;96529.81;;;4.84;100.00
18858;BME280;9558;50.178;8.370;2024-02-26T07:37:14;96528.81;;;4.85;100.00
18858;BME280;9558;50.178;8.370;2024-02-26T07:40:03;96532.09;;;4.79;100.00
18858;BME280;9558;50.178;8.370;2024-02-26T07:42:51;96531.56;;;4.84;100.00
18858;BME280;9558;50.178;8.370;2024-02-26T07:45:38;96531.56;;;4.84;100.00
18858;BME280;9558;50.178;8.370;2024-02-26T07:48:25;96536.69;;;4.84;100.00
18858;BME280;9558;50.178;8.370;2024-02-26T07:51:12;96534.47;;;4.81;100.00
18858;BME280;9558;50.178;8.370;2024-02-26T07:53:58;96533.53;;;4.82;100.00
18858;BME280;9558;50.178;8.370;2024-02-26T07:56:47;96527.75;;;4.80;100.00
18858;BME280;9558;50.178;8.370;2024-02-26T07:59:33;96537.03;;;4.81;100.00
18858;BME280;9558;50.178;8.370;2024-02-26T08:02:20;96527.94;;;4.78;100.00
18858;BME280;9558;50.178;8.370;2024-02-26T08:05:08;96531.56;;;4.84;100.00
18858;BME280;9558;50.178;8.370;2024-02-26T08:07:54;96539.06;;;4.85;100.00
18858;BME280;9558;50.178;8.370;2024-02-26T08:10:41;96540.31;;;4.90;100.00
18858;BME280;9558;50.178;8.370;2024-02-26T08:13:30;96548.94;;;4.89;100.00
18858;BME280;9558;50.178;8.370;2024-02-26T08:16:16;96550.00;;;4.94;100.00
18858;BME280;9558;50.178;8.370;2024-02-26T08:19:03;96546.28;;;4.97;100.00
18858;BME280;9558;50.178;8.370;2024-02-26T08:21:50;96558.94;;;4.98;100.00
18858;BME280;9558;50.178;8.370;2024-02-26T08:24:37;96561.94;;;5.02;100.00
18858;BME280;9558;50.178;8.370;2024-02-26T08:27:24;96563.97;;;5.07;100.00
18858;BME280;9558;50.178;8.370;2024-02-26T08:30:14;96563.22;;;5.13;100.00
18858;BME280;9558;50.178;8.370;2024-02-26T08:33:02;96565.47;;;5.16;100.00
18858;BME280;9558;50.178;8.370;2024-02-26T08:35:49;96570.13;;;5.27;100.00
18858;BME280;9558;50.178;8.370;2024-02-26T08:38:36;96567.38;;;5.29;100.00
18858;BME280;9558;50.178;8.370;2024-02-26T08:41:23;96565.78;;;5.28;100.00
18858;BME280;9558;50.178;8.370;2024-02-26T08:44:10;96572.94;;;5.32;100.00
18858;BME280;9558;50.178;8.370;2024-02-26T08:46:58;96575.13;;;5.35;100.00
18858;BME280;9558;50.178;8.370;2024-02-26T08:49:45;96574.66;;;5.47;100.00
18858;BME280;9558;50.178;8.370;2024-02-26T08:52:32;96575.28;;;5.49;100.00
18858;BME280;9558;50.178;8.370;2024-02-26T08:55:19;96574.94;;;5.59;100.00
18858;BME280;9558;50.178;8.370;2024-02-26T08:58:06;96584.44;;;5.58;100.00
18858;BME280;9558;50.178;8.370;2024-02-26T09:00:52;96587.50;;;5.68;100.00
18858;BME280;9558;50.178;8.370;2024-02-26T09:03:40;96582.63;;;5.74;100.00
18858;BME280;9558;50.178;8.370;2024-02-26T09:06:28;96581.50;;;5.83;100.00
18858;BME280;9558;50.178;8.370;2024-02-26T09:09:15;96591.66;;;5.91;100.00
18858;BME280;9558;50.178;8.370;2024-02-26T09:12:01;96600.94;;;5.92;100.00
18858;BME280;9558;50.178;8.370;2024-02-26T09:14:48;96593.53;;;5.97;100.00
18858;BME280;9558;50.178;8.370;2024-02-26T09:17:35;96592.41;;;6.07;100.00
18858;BME280;9558;50.178;8.370;2024-02-26T09:20:23;96588.91;;;6.14;100.00
18858;BME280;9558;50.178;8.370;2024-02-26T09:23:10;96593.13;;;6.22;100.00
18858;BME280;9558;50.178;8.370;2024-02-26T09:25:57;96597.75;;;6.33;100.00
18858;BME280;9558;50.178;8.370;2024-02-26T09:28:44;96592.63;;;6.40;100.00
18858;BME280;9558;50.178;8.370;2024-02-26T09:31:31;96596.03;;;6.47;100.00
18858;BME280;9558;50.178;8.370;2024-02-26T09:34:19;96585.25;;;6.58;100.00
18858;BME280;9558;50.178;8.370;2024-02-26T09:37:07;96589.84;;;6.63;100.00
18858;BME280;9558;50.178;8.370;2024-02-26T09:39:56;96596.41;;;6.72;100.00
18858;BME280;9558;50.178;8.370;2024-02-26T09:42:44;96602.00;;;6.83;100.00
18858;BME280;9558;50.178;8.370;2024-02-26T09:45:32;96608.97;;;6.89;100.00
18858;BME280;9558;50.178;8.370;2024-02-26T09:48:19;96607.19;;;6.89;100.00
18858;BME280;9558;50.178;8.370;2024-02-26T09:51:06;96613.09;;;6.90;100.00
18858;BME280;9558;50.178;8.370;2024-02-26T09:53:56;96611.22;;;7.05;100.00
18858;BME280;9558;50.178;8.370;2024-02-26T09:56:47;96614.75;;;6.98;100.00
18858;BME280;9558;50.178;8.370;2024-02-26T09:59:39;96613.97;;;7.04;100.00
18858;BME280;9558;50.178;8.370;2024-02-26T10:02:26;96618.00;;;7.13;100.00
18858;BME280;9558;50.178;8.370;2024-02-26T10:05:16;96619.00;;;7.19;100.00
18858;BME280;9558;50.178;8.370;2024-02-26T10:08:04;96614.03;;;7.17;100.00
18858;BME280;9558;50.178;8.370;2024-02-26T10:10:53;96614.44;;;7.21;100.00
18858;BME280;9558;50.178;8.370;2024-02-26T10:13:41;96619.19;;;7.24;100.00
18858;BME280;9558;50.178;8.370;2024-02-26T10:16:27;96620.00;;;7.24;100.00
18858;BME280;9558;50.178;8.370;2024-02-26T10:19:25;96620.41;;;7.28;100.00
18858;BME280;9558;50.178;8.370;2024-02-26T10:22:12;96630.53;;;7.36;100.00
18858;BME280;9558;50.178;8.370;2024-02-26T10:24:59;96627.94;;;7.30;100.00
18858;BME280;9558;50.178;8.370;2024-02-26T10:27:47;96640.00;;;7.29;100.00
18858;BME280;9558;50.178;8.370;2024-02-26T10:30:36;96642.19;;;7.32;100.00
18858;BME280;9558;50.178;8.370;2024-02-26T10:33:24;96650.50;;;7.34;100.00
18858;BME280;9558;50.178;8.370;2024-02-26T10:36:12;96644.00;;;7.38;100.00
18858;BME280;9558;50.178;8.370;2024-02-26T10:39:01;96647.78;;;7.42;100.00
18858;BME280;9558;50.178;8.370;2024-02-26T10:41:48;96647.56;;;7.44;100.00
18858;BME280;9558;50.178;8.370;2024-02-26T10:44:36;96648.81;;;7.55;100.00
18858;BME280;9558;50.178;8.370;2024-02-26T10:47:23;96655.75;;;7.61;100.00
18858;BME280;9558;50.178;8.370;2024-02-26T10:50:13;96664.91;;;7.70;100.00
18858;BME280;9558;50.178;8.370;2024-02-26T10:53:01;96659.56;;;7.78;100.00
18858;BME280;9558;50.178;8.370;2024-02-26T10:55:53;96656.97;;;7.78;100.00
18858;BME280;9558;50.178;8.370;2024-02-26T10:58:42;96661.97;;;7.87;100.00
18858;BME280;9558;50.178;8.370;2024-02-26T11:01:30;96664.94;;;7.97;100.00
18858;BME280;9558;50.178;8.370;2024-02-26T11:04:18;96668.53;;;7.96;100.00
18858;BME280;9558;50.178;8.370;2024-02-26T11:07:05;96672.91;;;8.02;100.00
18858;BME280;9558;50.178;8.370;2024-02-26T11:09:54;96668.53;;;8.03;100.00
18858;BME280;9558;50.178;8.370;2024-02-26T11:12:42;96676.28;;;8.09;100.00
18858;BME280;9558;50.178;8.370;2024-02-26T11:15:29;96670.53;;;8.14;100.00
18858;BME280;9558;50.178;8.370;2024-02-26T11:18:20;96674.28;;;8.11;100.00
18858;BME280;9558;50.178;8.370;2024-02-26T11:21:10;96681.66;;;8.15;100.00
18858;BME280;9558;50.178;8.370;2024-02-26T11:23:57;96671.53;;;8.20;100.00
18858;BME280;9558;50.178;8.370;2024-02-26T11:26:47;96673.69;;;8.23;100.00
18858;BME280;9558;50.178;8.370;2024-02-26T11:29:39;96680.06;;;8.27;100.00
18858;BME280;9558;50.178;8.370;2024-02-26T11:32:29;96686.41;;;8.31;100.00
18858;BME280;9558;50.178;8.370;2024-02-26T11:35:18;96686.41;;;8.38;100.00
18858;BME280;9558;50.178;8.370;2024-02-26T11:38:06;96685.63;;;8.44;100.00
18858;BME280;9558;50.178;8.370;2024-02-26T11:40:53;96691.63;;;8.58;100.00
18858;BME280;9558;50.178;8.370;2024-02-26T11:43:53;96686.84;;;8.55;100.00
18858;BME280;9558;50.178;8.370;2024-02-26T11:46:41;96694.78;;;8.60;100.00
18858;BME280;9558;50.178;8.370;2024-02-26T11:49:32;96689.63;;;8.60;100.00
18858;BME280;9558;50.178;8.370;2024-02-26T11:52:21;96685.03;;;8.69;100.00
18858;BME280;9558;50.178;8.370;2024-02-26T11:55:08;96683.66;;;8.73;100.00
18858;BME280;9558;50.178;8.370;2024-02-26T11:57:54;96689.59;;;8.87;100.00
18858;BME280;9558;50.178;8.370;2024-02-26T12:00:42;96682.44;;;8.89;100.00
18858;BME280;9558;50.178;8.370;2024-02-26T12:03:29;96684.41;;;9.00;100.00
18858;BME280;9558;50.178;8.370;2024-02-26T12:06:18;96680.06;;;8.94;100.00
18858;BME280;9558;50.178;8.370;2024-02-26T12:09:07;96680.84;;;9.01;100.00
18858;BME280;9558;50.178;8.370;2024-02-26T12:11:54;96687.75;;;9.07;100.00
18858;BME280;9558;50.178;8.370;2024-02-26T12:14:50;96686.38;;;9.11;100.00
18858;BME280;9558;50.178;8.370;2024-02-26T12:17:38;96700.66;;;9.21;100.00
18858;BME280;9558;50.178;8.370;2024-02-26T12:20:25;96704.78;;;9.35;100.00
18858;BME280;9558;50.178;8.370;2024-02-26T12:23:14;96705.72;;;9.54;100.00
18858;BME280;9558;50.178;8.370;2024-02-26T12:26:04;96709.25;;;9.66;100.00
18858;BME280;9558;50.178;8.370;2024-02-26T12:28:51;96716.31;;;9.84;100.00
18858;BME280;9558;50.178;8.370;2024-02-26T12:31:39;96710.75;;;9.88;100.00
18858;BME280;9558;50.178;8.370;2024-02-26T12:34:26;96718.66;;;9.93;100.00
18858;BME280;9558;50.178;8.370;2024-02-26T12:37:13;96726.63;;;9.84;100.00
18858;BME280;9558;50.178;8.370;2024-02-26T12:40:01;96738.16;;;9.89;100.00
18858;BME280;9558;50.178;8.370;2024-02-26T12:42:49;96726.25;;;9.88;100.00
18858;BME280;9558;50.178;8.370;2024-02-26T12:45:38;96726.81;;;9.96;100.00
18858;BME280;9558;50.178;8.370;2024-02-26T12:48:25;96731.78;;;9.91;100.00
18858;BME280;9558;50.178;8.370;2024-02-26T12:51:12;96732.97;;;9.89;100.00
18858;BME280;9558;50.178;8.370;2024-02-26T12:54:01;96727.59;;;9.90;100.00
18858;BME280;9558;50.178;8.370;2024-02-26T12:56:48;96729.97;;;9.98;100.00
18858;BME280;9558;50.178;8.370;2024-02-26T12:59:36;96731.16;;;9.96;100.00
18858;BME280;9558;50.178;8.370;2024-02-26T13:02:24;96738.53;;;9.99;100.00
18858;BME280;9558;50.178;8.370;2024-02-26T13:05:13;96734.56;;;9.96;100.00
18858;BME280;9558;50.178;8.370;2024-02-26T13:08:01;96731.75;;;9.98;100.00
18858;BME280;9558;50.178;8.370;2024-02-26T13:10:48;96736.94;;;9.91;100.00
18858;BME280;9558;50.178;8.370;2024-02-26T13:13:36;96737.56;;;9.86;100.00
18858;BME280;9558;50.178;8.370;2024-02-26T13:16:25;96746.09;;;9.87;100.00
18858;BME280;9558;50.178;8.370;2024-02-26T13:19:12;96754.06;;;9.92;100.00
18858;BME280;9558;50.178;8.370;2024-02-26T13:22:03;96754.28;;;9.77;100.00
18858;BME280;9558;50.178;8.370;2024-02-26T13:24:54;96757.28;;;9.81;100.00
18858;BME280;9558;50.178;8.370;2024-02-26T13:27:41;96758.06;;;9.81;100.00
18858;BME280;9558;50.178;8.370;2024-02-26T13:30:28;96770.59;;;9.78;100.00
18858;BME280;9558;50.178;8.370;2024-02-26T13:33:16;96772.38;;;9.77;100.00
18858;BME280;9558;50.178;8.370;2024-02-26T13:36:04;96766.81;;;9.80;100.00
18858;BME280;9558;50.178;8.370;2024-02-26T13:38:51;96766.00;;;9.86;100.00
18858;BME280;9558;50.178;8.370;2024-02-26T13:41:38;96776.34;;;9.86;100.00
18858;BME280;9558;50.178;8.370;2024-02-26T13:44:26;96782.69;;;9.91;100.00
18858;BME280;9558;50.178;8.370;2024-02-26T13:47:13;96777.50;;;9.91;100.00
18858;BME280;9558;50.178;8.370;2024-02-26T13:50:03;96777.09;;;9.94;100.00
18858;BME280;9558;50.178;8.370;2024-02-26T13:52:51;96775.72;;;9.91;100.00
18858;BME280;9558;50.178;8.370;2024-02-26T13:55:40;96780.25;;;9.96;100.00
18858;BME280;9558;50.178;8.370;2024-02-26T13:58:28;96777.53;;;9.84;100.00
18858;BME280;9558;50.178;8.370;2024-02-26T14:01:18;96778.97;;;9.66;100.00
18858;BME280;9558;50.178;8.370;2024-02-26T14:04:04;96779.75;;;9.67;100.00
18858;BME280;9558;50.178;8.370;2024-02-26T14:06:55;96789.47;;;9.72;100.00
18858;BME280;9558;50.178;8.370;2024-02-26T14:09:42;96782.53;;;9.72;100.00
18858;BME280;9558;50.178;8.370;2024-02-26T14:12:29;96780.19;;;9.64;100.00
18858;BME280;9558;50.178;8.370;2024-02-26T14:15:16;96781.16;;;9.63;100.00
18858;BME280;9558;50.178;8.370;2024-02-26T14:18:03;96780.38;;;9.62;100.00
18858;BME280;9558;50.178;8.370;2024-02-26T14:20:50;96782.56;;;9.65;100.00
18858;BME280;9558;50.178;8.370;2024-02-26T14:23:38;96792.09;;;9.65;100.00
18858;BME280;9558;50.178;8.370;2024-02-26T14:26:25;96786.94;;;9.65;100.00
18858;BME280;9558;50.178;8.370;2024-02-26T14:29:12;96790.72;;;9.69;100.00
18858;BME280;9558;50.178;8.370;2024-02-26T14:31:59;96789.31;;;9.66;100.00
18858;BME280;9558;50.178;8.370;2024-02-26T14:34:46;96795.47;;;9.65;100.00
18858;BME280;9558;50.178;8.370;2024-02-26T14:37:33;96801.03;;;9.69;100.00
18858;BME280;9558;50.178;8.370;2024-02-26T14:40:21;96800.63;;;9.72;100.00
18858;BME280;9558;50.178;8.370;2024-02-26T14:43:08;96807.19;;;9.75;100.00
18858;BME280;9558;50.178;8.370;2024-02-26T14:45:57;96807.75;;;9.77;100.00
18858;BME280;9558;50.178;8.370;2024-02-26T14:48:44;96810.56;;;9.75;100.00
18858;BME280;9558;50.178;8.370;2024-02-26T14:51:31;96820.88;;;9.75;100.00
18858;BME280;9558;50.178;8.370;2024-02-26T14:54:18;96816.75;;;9.67;100.00
18858;BME280;9558;50.178;8.370;2024-02-26T14:57:06;96817.31;;;9.63;100.00
18858;BME280;9558;50.178;8.370;2024-02-26T14:59:53;96826.25;;;9.67;100.00
18858;BME280;9558;50.178;8.370;2024-02-26T15:02:40;96835.03;;;9.66;100.00